Alfalfa, Louisiana
Current Conditions -  °F | °C
As of 7:53 PM on Tuesday 25 Nov 2014 (Local Time) from KAEX Reporting Station
Clear Clear  
Wind Chill: 38°   Ceiling: Unl
Heat Index: 41°   Visibility: 10mi
Dew Point: 34°   Wind: 5mph
Humidity: 76%   Direction: 130°SE
Pressure: 30.23"   Gusts: NA
Location:  31.3168°N, 92.7338°W
Report Text: KAEX 260153Z AUTO 13004KT 10SM CLR 05/01 A3023 RMK AO2 SLP242 T00500011
Loading
Personal Weather Stations






























Interactive Weather Map New forecast layout! Learn more

10-Day Weather Forecast

Advertisements
Track Severe Weather on mobile